createdAt,value
2022-08-20T00:00:23.652Z,2.35
2022-08-20T00:02:51.856Z,2.13
2022-08-20T00:05:21.793Z,1.95
2022-08-20T00:07:48.403Z,2.45
2022-08-20T00:10:15.031Z,2.00
2022-08-20T00:12:45.654Z,2.33
2022-08-20T00:15:13.405Z,2.28
2022-08-20T00:17:40.938Z,2.13
2022-08-20T00:20:13.384Z,1.80
2022-08-20T00:22:39.952Z,1.88
2022-08-20T00:25:07.727Z,1.88
2022-08-20T00:27:34.325Z,1.88
2022-08-20T00:30:00.925Z,2.15
2022-08-20T00:32:27.528Z,2.10
2022-08-20T00:34:54.151Z,2.17
2022-08-20T00:37:20.709Z,2.20
2022-08-20T00:39:47.419Z,2.38
2022-08-20T00:42:14.103Z,1.80
2022-08-20T00:44:47.255Z,1.92
2022-08-20T00:47:13.984Z,2.15
2022-08-20T00:49:40.658Z,1.85
2022-08-20T00:52:09.595Z,2.00
2022-08-20T00:54:41.846Z,2.10
2022-08-20T00:57:13.177Z,1.98
2022-08-20T00:59:41.777Z,1.52
2022-08-20T01:02:10.072Z,2.13
2022-08-20T01:04:37.207Z,1.88
2022-08-20T01:07:05.485Z,2.15
2022-08-20T01:09:49.735Z,1.70
2022-08-20T01:12:18.959Z,2.30
2022-08-20T01:14:46.767Z,2.30
2022-08-20T01:17:20.637Z,1.90
2022-08-20T01:19:49.160Z,2.00
2022-08-20T01:22:38.950Z,2.00
2022-08-20T01:25:08.828Z,2.00
2022-08-20T01:27:39.497Z,1.85
2022-08-20T01:30:09.450Z,1.60
2022-08-20T01:32:38.870Z,1.95
2022-08-20T01:35:05.780Z,1.70
2022-08-20T01:37:32.485Z,1.35
2022-08-20T01:39:59.496Z,2.05
2022-08-20T01:42:30.330Z,1.58
2022-08-20T01:44:57.002Z,1.95
2022-08-20T01:47:28.189Z,1.58
2022-08-20T01:50:08.044Z,1.67
2022-08-20T01:52:41.472Z,1.60
2022-08-20T01:55:09.231Z,1.40
2022-08-20T01:57:36.478Z,1.30
2022-08-20T02:00:06.181Z,1.27
2022-08-20T02:02:32.725Z,1.30
2022-08-20T02:05:00.864Z,1.55
2022-08-20T02:07:27.380Z,1.48
2022-08-20T02:09:54.041Z,1.33
2022-08-20T02:12:20.604Z,1.10
2022-08-20T02:14:48.835Z,1.52
2022-08-20T02:17:15.990Z,1.00
2022-08-20T02:20:02.812Z,1.25
2022-08-20T02:22:38.559Z,1.00
2022-08-20T02:25:06.731Z,1.02
2022-08-20T02:27:33.440Z,1.10
2022-08-20T02:30:00.067Z,1.10
2022-08-20T02:32:33.680Z,1.30
2022-08-20T02:35:02.362Z,1.20
2022-08-20T02:37:29.261Z,1.00
2022-08-20T02:39:55.925Z,1.08
2022-08-20T02:42:22.697Z,1.08
2022-08-20T02:44:49.249Z,1.10
2022-08-20T02:47:17.226Z,1.20
2022-08-20T02:49:43.926Z,0.82
2022-08-20T02:52:10.518Z,1.00
2022-08-20T02:54:37.142Z,0.90
2022-08-20T02:57:04.308Z,0.90
2022-08-20T02:59:30.828Z,0.95
2022-08-20T03:02:00.792Z,1.40
2022-08-20T03:04:30.469Z,0.93
2022-08-20T03:06:57.913Z,1.10
2022-08-20T03:09:24.594Z,1.10
2022-08-20T03:11:51.389Z,0.90
2022-08-20T03:14:17.972Z,0.90
2022-08-20T03:16:44.549Z,0.77
2022-08-20T03:19:11.172Z,1.02
2022-08-20T03:21:37.776Z,1.00
2022-08-20T03:24:04.364Z,1.15
2022-08-20T03:26:31.061Z,0.80
2022-08-20T03:28:57.831Z,0.85
2022-08-20T03:31:24.650Z,0.90
2022-08-20T03:33:53.608Z,0.95
2022-08-20T03:36:28.364Z,0.77
2022-08-20T03:38:56.696Z,1.20
2022-08-20T03:41:23.926Z,0.85
2022-08-20T03:43:51.051Z,0.68
2022-08-20T03:46:23.103Z,0.95
2022-08-20T03:48:58.707Z,1.00
2022-08-20T03:51:28.055Z,0.90
2022-08-20T03:53:54.784Z,0.70
2022-08-20T03:56:21.465Z,0.70
2022-08-20T03:58:48.239Z,0.60
2022-08-20T04:01:45.855Z,0.80
2022-08-20T04:04:01.576Z,0.80
2022-08-20T04:06:30.111Z,0.75
2022-08-20T04:08:56.891Z,0.65
2022-08-20T04:11:24.370Z,0.93
2022-08-20T04:13:51.084Z,0.80
2022-08-20T04:16:17.864Z,0.70
2022-08-20T04:18:56.215Z,0.80
2022-08-20T04:21:30.971Z,0.68
2022-08-20T04:23:59.930Z,0.95
2022-08-20T04:26:26.450Z,0.93
2022-08-20T04:28:53.075Z,0.80
2022-08-20T04:31:24.846Z,0.80
2022-08-20T04:33:51.793Z,0.90
2022-08-20T04:36:18.320Z,1.02
2022-08-20T04:38:48.161Z,1.05
2022-08-20T04:41:23.283Z,1.02
2022-08-20T04:43:51.842Z,0.88
2022-08-20T04:46:19.386Z,1.00
2022-08-20T04:48:48.496Z,0.80
2022-08-20T04:51:15.812Z,0.90
2022-08-20T04:53:43.153Z,0.85
2022-08-20T04:56:09.868Z,0.88
2022-08-20T04:58:38.084Z,0.80
2022-08-20T05:01:09.386Z,0.75
2022-08-20T05:03:37.650Z,0.70
2022-08-20T05:06:08.714Z,0.77
2022-08-20T05:08:36.149Z,0.70
2022-08-20T05:11:16.563Z,1.13
2022-08-20T05:13:50.436Z,0.65
2022-08-20T05:16:18.101Z,0.80
2022-08-20T05:18:45.702Z,0.80
2022-08-20T05:21:18.973Z,0.60
2022-08-20T05:23:45.836Z,0.80
2022-08-20T05:26:13.145Z,0.45
2022-08-20T05:28:49.988Z,0.90
2022-08-20T05:31:32.412Z,0.65
2022-08-20T05:34:09.995Z,0.55
2022-08-20T05:36:49.209Z,0.70
2022-08-20T05:39:16.795Z,0.75
2022-08-20T05:41:43.279Z,0.70
2022-08-20T05:44:10.974Z,0.63
2022-08-20T05:46:41.192Z,0.73
2022-08-20T05:49:19.571Z,0.68
2022-08-20T05:51:46.659Z,0.80
2022-08-20T05:54:13.758Z,0.80
2022-08-20T05:56:40.266Z,0.73
2022-08-20T05:59:07.737Z,0.70
2022-08-20T06:01:35.687Z,0.60
2022-08-20T06:04:21.566Z,0.75
2022-08-20T06:06:48.579Z,0.90
2022-08-20T06:09:16.237Z,0.63
2022-08-20T06:11:42.804Z,0.63
2022-08-20T06:14:09.316Z,0.68
2022-08-20T06:16:37.151Z,0.60
2022-08-20T06:19:04.194Z,0.50
2022-08-20T06:21:30.701Z,0.52
2022-08-20T06:24:00.549Z,0.85
2022-08-20T06:26:29.975Z,0.80
2022-08-20T06:28:57.662Z,0.70
2022-08-20T06:31:24.441Z,0.77
2022-08-20T06:33:50.983Z,0.80
2022-08-20T06:36:19.030Z,0.70
2022-08-20T06:38:46.454Z,0.90
2022-08-20T06:41:13.055Z,0.60
2022-08-20T06:43:39.598Z,0.60
2022-08-20T06:46:07.009Z,0.85
2022-08-20T06:48:34.069Z,0.85
2022-08-20T06:51:00.676Z,0.60
2022-08-20T06:53:27.221Z,0.70
2022-08-20T06:55:54.730Z,0.60
2022-08-20T06:58:35.792Z,0.90
2022-08-20T07:01:09.028Z,0.70
2022-08-20T07:03:38.146Z,0.90
2022-08-20T07:06:04.842Z,0.65
2022-08-20T07:08:31.324Z,0.70
2022-08-20T07:10:57.762Z,0.70
2022-08-20T07:13:25.537Z,0.70
2022-08-20T07:15:53.104Z,0.50
2022-08-20T07:18:28.878Z,0.63
2022-08-20T07:20:57.499Z,0.70
2022-08-20T07:23:24.653Z,0.70
2022-08-20T07:25:51.152Z,0.60
2022-08-20T07:28:21.716Z,0.60
2022-08-20T07:31:13.715Z,0.80
2022-08-20T07:33:42.736Z,0.77
2022-08-20T07:36:11.733Z,1.00
2022-08-20T07:38:38.203Z,0.70
2022-08-20T07:41:06.439Z,0.50
2022-08-20T07:43:33.452Z,0.45
2022-08-20T07:46:01.373Z,0.60
2022-08-20T07:48:31.936Z,0.90
2022-08-20T07:51:04.963Z,0.70
2022-08-20T07:53:35.777Z,0.70
2022-08-20T07:56:05.586Z,0.50
2022-08-20T07:58:33.610Z,0.70
2022-08-20T08:01:00.632Z,0.47
2022-08-20T08:03:39.462Z,0.75
2022-08-20T08:06:28.439Z,0.52
2022-08-20T08:08:55.908Z,0.50
2022-08-20T08:11:22.777Z,0.50
2022-08-20T08:13:49.293Z,0.50
2022-08-20T08:16:15.872Z,0.50
2022-08-20T08:18:44.882Z,0.60
2022-08-20T08:21:14.522Z,0.50
2022-08-20T08:23:44.680Z,0.47
2022-08-20T08:26:17.864Z,0.40
2022-08-20T08:28:45.779Z,0.50
2022-08-20T08:31:12.493Z,0.63
2022-08-20T08:33:40.874Z,0.40
2022-08-20T08:36:09.876Z,0.50
2022-08-20T08:38:41.051Z,0.50
2022-08-20T08:41:19.853Z,0.50
2022-08-20T08:43:53.390Z,0.43
2022-08-20T08:46:23.710Z,0.30
2022-08-20T08:48:53.456Z,0.50
2022-08-20T08:51:28.198Z,0.45
2022-08-20T08:53:55.794Z,0.57
2022-08-20T08:56:26.854Z,0.57
2022-08-20T08:58:55.693Z,0.50
2022-08-20T09:01:54.369Z,0.57
2022-08-20T09:04:10.136Z,0.55
2022-08-20T09:06:36.861Z,0.43
2022-08-20T09:09:04.746Z,0.40
2022-08-20T09:11:44.552Z,0.60
2022-08-20T09:14:11.032Z,0.80
2022-08-20T09:16:52.166Z,0.57
2022-08-20T09:19:21.401Z,0.50
2022-08-20T09:21:48.253Z,0.52
2022-08-20T09:24:14.824Z,0.88
2022-08-20T09:26:41.521Z,0.88
2022-08-20T09:29:08.083Z,0.68
2022-08-20T09:31:35.407Z,0.80
2022-08-20T09:34:04.618Z,0.68
2022-08-20T09:36:32.582Z,0.85
2022-08-20T09:38:59.723Z,0.85
2022-08-20T09:41:26.338Z,0.85
2022-08-20T09:43:52.902Z,0.73
2022-08-20T09:46:19.512Z,0.60
2022-08-20T09:48:53.597Z,0.85
2022-08-20T09:51:20.133Z,0.60
2022-08-20T09:53:46.757Z,0.75
2022-08-20T09:56:13.761Z,0.93
2022-08-20T09:58:50.658Z,0.77
2022-08-20T10:01:18.615Z,0.68
2022-08-20T10:03:48.166Z,0.90
2022-08-20T10:06:16.690Z,1.30
2022-08-20T10:08:43.627Z,1.00
2022-08-20T10:11:10.159Z,1.00
2022-08-20T10:13:36.880Z,1.00
2022-08-20T10:16:03.656Z,1.33
2022-08-20T10:18:30.085Z,0.73
2022-08-20T10:20:56.674Z,1.08
2022-08-20T10:23:23.135Z,0.98
2022-08-20T10:25:49.626Z,1.02
2022-08-20T10:28:16.204Z,0.90
2022-08-20T10:30:43.466Z,1.00
2022-08-20T10:33:09.977Z,1.02
2022-08-20T10:35:36.495Z,1.05
2022-08-20T10:38:03.146Z,0.90
2022-08-20T10:40:29.695Z,1.17
2022-08-20T10:42:56.276Z,1.48
2022-08-20T10:45:23.096Z,1.20
2022-08-20T10:47:49.846Z,1.20
2022-08-20T10:50:16.776Z,2.20
2022-08-20T10:52:43.317Z,1.33
2022-08-20T10:55:10.457Z,1.50
2022-08-20T10:57:38.456Z,1.30
2022-08-20T11:00:06.796Z,1.55
2022-08-20T11:02:33.356Z,1.25
2022-08-20T11:04:59.867Z,0.80
2022-08-20T11:07:49.977Z,0.93
2022-08-20T11:10:17.996Z,1.10
2022-08-20T11:12:46.065Z,1.10
2022-08-20T11:15:13.152Z,1.02
2022-08-20T11:17:41.221Z,1.30
2022-08-20T11:20:08.694Z,1.30
2022-08-20T11:22:35.535Z,1.42
2022-08-20T11:25:02.592Z,1.20
2022-08-20T11:27:31.234Z,1.38
2022-08-20T11:29:58.053Z,1.20
2022-08-20T11:32:25.393Z,0.98
2022-08-20T11:34:52.731Z,1.30
2022-08-20T11:37:20.954Z,1.23
2022-08-20T11:39:48.024Z,1.02
2022-08-20T11:42:14.756Z,1.20
2022-08-20T11:44:41.409Z,1.30
2022-08-20T11:47:08.393Z,1.33
2022-08-20T11:49:36.732Z,1.30
2022-08-20T11:52:04.386Z,1.67
2022-08-20T11:54:32.674Z,1.65
2022-08-20T11:56:59.649Z,1.83
2022-08-20T11:59:26.653Z,1.60
2022-08-20T12:02:02.888Z,1.80
2022-08-20T12:04:33.546Z,1.55
2022-08-20T12:07:07.795Z,1.30
2022-08-20T12:09:34.453Z,1.85
2022-08-20T12:12:01.053Z,1.90
2022-08-20T12:14:27.713Z,1.50
2022-08-20T12:16:54.372Z,1.77
2022-08-20T12:19:20.953Z,1.73
2022-08-20T12:21:47.554Z,1.70
2022-08-20T12:24:14.113Z,1.85
2022-08-20T12:26:40.814Z,1.73
2022-08-20T12:29:07.434Z,1.80
2022-08-20T12:31:34.053Z,1.60
2022-08-20T12:34:00.654Z,1.80
2022-08-20T12:36:27.293Z,1.70
2022-08-20T12:38:53.882Z,1.80
2022-08-20T12:41:20.474Z,9.73
2022-08-20T12:43:47.156Z,3.40
2022-08-20T12:46:13.913Z,5.30
2022-08-20T12:48:40.573Z,12.20
2022-08-20T12:51:07.382Z,9.35
2022-08-20T12:53:34.033Z,7.88
2022-08-20T12:56:02.596Z,5.75
2022-08-20T12:58:29.273Z,7.32
2022-08-20T13:00:56.657Z,5.07
2022-08-20T13:03:23.314Z,11.52
2022-08-20T13:05:51.273Z,25.75
2022-08-20T13:08:19.493Z,7.65
2022-08-20T13:10:46.556Z,3.58
2022-08-20T13:13:20.547Z,3.08
2022-08-20T13:15:47.933Z,2.63
2022-08-20T13:18:14.493Z,2.17
2022-08-20T13:20:41.491Z,2.70
2022-08-20T13:23:08.191Z,2.03
2022-08-20T13:25:34.874Z,2.45
2022-08-20T13:28:04.076Z,1.73
2022-08-20T13:30:31.453Z,2.13
2022-08-20T13:32:58.212Z,1.70
2022-08-20T13:35:25.033Z,1.70
2022-08-20T13:37:51.494Z,2.00
2022-08-20T13:40:18.672Z,1.98
2022-08-20T13:42:45.634Z,1.70
2022-08-20T13:45:12.470Z,1.65
2022-08-20T13:47:40.177Z,1.88
2022-08-20T13:50:08.276Z,2.00
2022-08-20T13:52:35.384Z,1.58
2022-08-20T13:55:03.152Z,1.67
2022-08-20T13:57:33.340Z,1.60
2022-08-20T13:59:59.955Z,1.70
2022-08-20T14:02:26.961Z,1.70
2022-08-20T14:04:54.214Z,2.08
2022-08-20T14:07:20.947Z,1.70
2022-08-20T14:09:54.097Z,2.08
2022-08-20T14:12:22.632Z,2.00
2022-08-20T14:14:49.693Z,2.05
2022-08-20T14:17:16.340Z,2.10
2022-08-20T14:19:43.233Z,2.00
2022-08-20T14:22:09.771Z,2.40
2022-08-20T14:24:36.533Z,2.40
2022-08-20T14:27:04.655Z,2.10
2022-08-20T14:29:33.971Z,2.10
2022-08-20T14:32:03.603Z,1.75
2022-08-20T14:34:30.518Z,2.72
2022-08-20T14:36:58.496Z,2.10
2022-08-20T14:39:28.115Z,1.88
2022-08-20T14:41:54.592Z,2.55
2022-08-20T14:44:21.354Z,2.70
2022-08-20T14:46:47.995Z,3.08
2022-08-20T14:49:14.653Z,2.55
2022-08-20T14:51:41.233Z,2.45
2022-08-20T14:54:07.702Z,2.40
2022-08-20T14:56:34.156Z,2.45
2022-08-20T14:59:00.715Z,2.63
2022-08-20T15:01:27.296Z,2.60
2022-08-20T15:03:53.913Z,2.53
2022-08-20T15:06:22.366Z,2.47
2022-08-20T15:08:49.258Z,2.63
2022-08-20T15:11:15.902Z,2.72
2022-08-20T15:13:42.853Z,2.85
2022-08-20T15:16:09.454Z,2.92
2022-08-20T15:18:36.013Z,2.80
2022-08-20T15:21:02.713Z,2.72
2022-08-20T15:23:29.414Z,3.10
2022-08-20T15:25:56.110Z,2.50
2022-08-20T15:28:22.733Z,2.83
2022-08-20T15:30:49.470Z,2.75
2022-08-20T15:33:16.174Z,3.05
2022-08-20T15:35:43.754Z,3.10
2022-08-20T15:38:10.434Z,2.60
2022-08-20T15:40:37.055Z,2.63
2022-08-20T15:43:04.302Z,3.03
2022-08-20T15:45:31.195Z,2.45
2022-08-20T15:48:24.498Z,2.60
2022-08-20T15:50:56.998Z,2.90
2022-08-20T15:53:30.536Z,2.85
2022-08-20T15:56:04.653Z,2.97
2022-08-20T15:58:42.893Z,2.60
2022-08-20T16:01:24.448Z,2.85
2022-08-20T16:04:06.040Z,2.90
2022-08-20T16:06:33.453Z,2.33
2022-08-20T16:09:35.410Z,2.92
2022-08-20T16:12:10.275Z,3.03
2022-08-20T16:14:38.392Z,2.45
2022-08-20T16:17:16.275Z,2.65
2022-08-20T16:19:58.500Z,2.67
2022-08-20T16:22:27.213Z,2.53
2022-08-20T16:24:54.550Z,2.35
2022-08-20T16:27:40.793Z,2.50
2022-08-20T16:30:12.387Z,2.58
2022-08-20T16:32:51.895Z,2.72
2022-08-20T16:35:37.678Z,2.45
2022-08-20T16:38:21.160Z,2.63
2022-08-20T16:41:01.057Z,2.30
2022-08-20T16:43:31.864Z,2.30
2022-08-20T16:46:27.894Z,2.20
2022-08-20T16:48:58.113Z,2.20
2022-08-20T16:51:37.160Z,2.42
2022-08-20T16:54:04.504Z,2.35
2022-08-20T16:56:33.597Z,2.50
2022-08-20T16:59:08.719Z,2.30
2022-08-20T17:01:35.674Z,2.50
2022-08-20T17:04:02.240Z,2.30
2022-08-20T17:06:32.844Z,2.17
2022-08-20T17:09:04.164Z,2.47
2022-08-20T17:11:33.412Z,2.00
2022-08-20T17:14:04.800Z,2.17
2022-08-20T17:16:36.467Z,1.83
2022-08-20T17:19:21.786Z,1.98
2022-08-20T17:21:50.619Z,1.95
2022-08-20T17:24:25.391Z,2.20
2022-08-20T17:27:03.015Z,1.83
2022-08-20T17:29:31.493Z,1.90
2022-08-20T17:31:59.963Z,2.00
2022-08-20T17:34:28.640Z,2.08
2022-08-20T17:36:57.129Z,1.65
2022-08-20T17:39:25.474Z,1.90
2022-08-20T17:42:07.184Z,2.17
2022-08-20T17:44:35.919Z,1.80
2022-08-20T17:47:05.385Z,1.88
2022-08-20T17:49:35.425Z,1.83
2022-08-20T17:52:03.904Z,1.92
2022-08-20T17:54:32.904Z,1.83
2022-08-20T17:57:00.534Z,1.80
2022-08-20T18:00:00.305Z,1.73
2022-08-20T18:02:14.418Z,1.67
2022-08-20T18:04:41.424Z,1.60
2022-08-20T18:07:11.057Z,1.70
2022-08-20T18:09:48.124Z,1.52
2022-08-20T18:12:32.945Z,1.70
2022-08-20T18:15:04.104Z,1.77
2022-08-20T18:17:33.593Z,1.80
2022-08-20T18:20:13.723Z,1.70
2022-08-20T18:22:45.681Z,1.50
2022-08-20T18:25:24.362Z,1.58
2022-08-20T18:27:51.380Z,1.35
2022-08-20T18:30:19.236Z,1.58
2022-08-20T18:32:46.891Z,1.48
2022-08-20T18:35:31.343Z,1.30
2022-08-20T18:37:58.003Z,1.40
2022-08-20T18:40:29.312Z,1.60
2022-08-20T18:42:58.890Z,1.40
2022-08-20T18:45:33.544Z,1.20
2022-08-20T18:48:01.116Z,1.50
2022-08-20T18:50:43.034Z,1.52
2022-08-20T18:53:16.816Z,1.50
2022-08-20T18:55:47.870Z,1.35
2022-08-20T18:58:15.963Z,1.30
2022-08-20T19:00:44.540Z,1.30
2022-08-20T19:03:23.158Z,1.10
2022-08-20T19:05:49.632Z,1.25
2022-08-20T19:08:17.946Z,1.23
2022-08-20T19:11:11.510Z,1.23
2022-08-20T19:13:53.284Z,1.13
2022-08-20T19:16:28.915Z,1.50
2022-08-20T19:18:55.686Z,1.40
2022-08-20T19:21:24.878Z,1.30
2022-08-20T19:23:54.010Z,1.17
2022-08-20T19:26:25.813Z,1.42
2022-08-20T19:29:12.866Z,1.40
2022-08-20T19:31:39.328Z,1.40
2022-08-20T19:34:20.043Z,1.30
2022-08-20T19:37:08.900Z,1.48
2022-08-20T19:39:50.808Z,1.63
2022-08-20T19:42:20.213Z,2.10
2022-08-20T19:44:59.659Z,1.70
2022-08-20T19:47:30.577Z,1.92
2022-08-20T19:49:57.013Z,1.90
2022-08-20T19:52:23.408Z,1.50
2022-08-20T19:54:51.636Z,1.50
2022-08-20T19:57:19.393Z,1.67
2022-08-20T19:59:57.121Z,2.17
2022-08-20T20:02:25.108Z,2.00
2022-08-20T20:04:55.367Z,1.40
2022-08-20T20:07:28.986Z,1.95
2022-08-20T20:09:56.558Z,2.10
2022-08-20T20:12:23.620Z,2.00
2022-08-20T20:14:51.236Z,2.28
2022-08-20T20:17:23.091Z,2.58
2022-08-20T20:19:49.863Z,2.33
2022-08-20T20:22:19.121Z,2.60
2022-08-20T20:24:49.968Z,2.28
2022-08-20T20:27:22.244Z,2.30
2022-08-20T20:29:49.198Z,2.40
2022-08-20T20:32:19.244Z,2.10
2022-08-20T20:34:55.505Z,2.30
2022-08-20T20:37:49.187Z,2.13
2022-08-20T20:40:21.660Z,2.38
2022-08-20T20:43:00.254Z,2.13
2022-08-20T20:45:30.956Z,2.15
2022-08-20T20:47:58.004Z,1.80
2022-08-20T20:50:42.635Z,2.00
2022-08-20T20:53:09.407Z,1.88
2022-08-20T20:55:37.546Z,1.85
2022-08-20T20:58:04.665Z,1.70
2022-08-20T21:00:32.698Z,2.00
2022-08-20T21:03:02.580Z,1.60
2022-08-20T21:05:31.198Z,1.65
2022-08-20T21:07:59.509Z,2.00
2022-08-20T21:10:27.944Z,2.63
2022-08-20T21:12:55.022Z,2.42
2022-08-20T21:15:22.642Z,1.90
2022-08-20T21:17:49.167Z,2.10
2022-08-20T21:20:16.086Z,1.80
2022-08-20T21:22:42.793Z,2.10
2022-08-20T21:25:09.356Z,2.10
2022-08-20T21:27:36.080Z,2.17
2022-08-20T21:30:04.750Z,1.85
2022-08-20T21:32:31.239Z,2.00
2022-08-20T21:34:57.724Z,1.98
2022-08-20T21:37:24.292Z,1.88
2022-08-20T21:39:50.872Z,2.00
2022-08-20T21:42:28.956Z,1.90
2022-08-20T21:44:56.184Z,2.00
2022-08-20T21:47:22.971Z,1.85
2022-08-20T21:49:49.459Z,1.90
2022-08-20T21:52:15.926Z,2.40
2022-08-20T21:54:42.435Z,1.92
2022-08-20T21:57:13.046Z,2.08
2022-08-20T21:59:40.802Z,2.00
2022-08-20T22:02:07.465Z,1.80
2022-08-20T22:04:35.642Z,1.67
2022-08-20T22:07:02.339Z,2.20
2022-08-20T22:09:28.892Z,2.00
2022-08-20T22:11:57.460Z,2.53
2022-08-20T22:14:27.526Z,2.70
2022-08-20T22:16:54.028Z,2.00
2022-08-20T22:19:20.508Z,2.08
2022-08-20T22:21:46.951Z,2.08
2022-08-20T22:24:13.651Z,2.33
2022-08-20T22:26:40.563Z,2.08
2022-08-20T22:29:07.857Z,2.50
2022-08-20T22:31:35.345Z,2.15
2022-08-20T22:34:01.859Z,2.60
2022-08-20T22:36:29.086Z,2.30
2022-08-20T22:38:56.054Z,2.33
2022-08-20T22:41:23.204Z,2.30
2022-08-20T22:43:56.754Z,1.98
2022-08-20T22:46:24.931Z,2.05
2022-08-20T22:48:53.410Z,1.92
2022-08-20T22:51:30.470Z,2.00
2022-08-20T22:53:57.255Z,2.05
2022-08-20T22:56:23.926Z,1.88
2022-08-20T22:58:51.040Z,1.70
2022-08-20T23:01:19.109Z,2.00
2022-08-20T23:03:45.920Z,2.20
2022-08-20T23:06:12.743Z,2.17
2022-08-20T23:08:39.960Z,2.55
2022-08-20T23:11:06.794Z,2.10
2022-08-20T23:13:33.629Z,2.10
2022-08-20T23:16:00.428Z,2.22
2022-08-20T23:18:27.009Z,2.00
2022-08-20T23:20:55.919Z,2.13
2022-08-20T23:23:23.058Z,2.13
2022-08-20T23:25:49.989Z,2.28
2022-08-20T23:28:18.313Z,2.25
2022-08-20T23:30:45.349Z,1.92
2022-08-20T23:33:12.269Z,2.17
2022-08-20T23:35:39.805Z,2.35
2022-08-20T23:38:06.909Z,2.13
2022-08-20T23:40:33.888Z,1.98
2022-08-20T23:43:00.548Z,2.28
2022-08-20T23:45:28.190Z,2.30
2022-08-20T23:47:54.999Z,2.20
2022-08-20T23:50:24.086Z,2.08
2022-08-20T23:52:51.016Z,1.80
2022-08-20T23:55:18.209Z,1.80
2022-08-20T23:57:44.876Z,1.90
